sensor_id;sensor_type;location;lat;lon;timestamp;P1;durP1;ratioP1;P2;durP2;ratioP2
64401;SDS011;50724;42.376;23.768;2023-07-08T00:02:47;14.20;;;9.13;;
64401;SDS011;50724;42.376;23.768;2023-07-08T00:05:50;13.00;;;7.97;;
64401;SDS011;50724;42.376;23.768;2023-07-08T00:08:55;15.25;;;9.35;;
64401;SDS011;50724;42.376;23.768;2023-07-08T00:11:55;13.48;;;8.95;;
64401;SDS011;50724;42.376;23.768;2023-07-08T00:14:57;16.60;;;10.23;;
64401;SDS011;50724;42.376;23.768;2023-07-08T00:18:00;17.07;;;10.93;;
64401;SDS011;50724;42.376;23.768;2023-07-08T00:21:01;17.17;;;9.95;;
64401;SDS011;50724;42.376;23.768;2023-07-08T00:24:01;19.45;;;11.85;;
64401;SDS011;50724;42.376;23.768;2023-07-08T00:27:02;18.23;;;11.98;;
64401;SDS011;50724;42.376;23.768;2023-07-08T00:30:09;19.73;;;11.02;;
64401;SDS011;50724;42.376;23.768;2023-07-08T00:33:13;16.92;;;11.70;;
64401;SDS011;50724;42.376;23.768;2023-07-08T00:36:14;16.70;;;10.97;;
64401;SDS011;50724;42.376;23.768;2023-07-08T00:39:16;21.52;;;11.43;;
64401;SDS011;50724;42.376;23.768;2023-07-08T00:42:18;20.47;;;12.70;;
64401;SDS011;50724;42.376;23.768;2023-07-08T00:45:29;22.45;;;13.18;;
64401;SDS011;50724;42.376;23.768;2023-07-08T00:48:35;20.92;;;11.88;;
64401;SDS011;50724;42.376;23.768;2023-07-08T00:51:38;18.98;;;12.52;;
64401;SDS011;50724;42.376;23.768;2023-07-08T00:54:39;20.77;;;13.05;;
64401;SDS011;50724;42.376;23.768;2023-07-08T00:57:40;18.97;;;12.70;;
64401;SDS011;50724;42.376;23.768;2023-07-08T01:00:45;20.13;;;13.52;;
64401;SDS011;50724;42.376;23.768;2023-07-08T01:03:48;24.02;;;13.73;;
64401;SDS011;50724;42.376;23.768;2023-07-08T01:06:55;21.08;;;12.88;;
64401;SDS011;50724;42.376;23.768;2023-07-08T01:10:02;21.77;;;14.13;;
64401;SDS011;50724;42.376;23.768;2023-07-08T01:13:06;20.38;;;12.80;;
64401;SDS011;50724;42.376;23.768;2023-07-08T01:16:13;22.17;;;13.52;;
64401;SDS011;50724;42.376;23.768;2023-07-08T01:19:16;21.17;;;14.02;;
64401;SDS011;50724;42.376;23.768;2023-07-08T01:22:19;26.80;;;14.55;;
64401;SDS011;50724;42.376;23.768;2023-07-08T01:25:19;23.17;;;15.27;;
64401;SDS011;50724;42.376;23.768;2023-07-08T01:28:21;24.20;;;14.55;;
64401;SDS011;50724;42.376;23.768;2023-07-08T01:31:22;23.05;;;14.60;;
64401;SDS011;50724;42.376;23.768;2023-07-08T01:34:23;26.65;;;16.05;;
64401;SDS011;50724;42.376;23.768;2023-07-08T01:37:24;26.02;;;15.70;;
64401;SDS011;50724;42.376;23.768;2023-07-08T01:40:29;26.13;;;15.70;;
64401;SDS011;50724;42.376;23.768;2023-07-08T01:43:31;23.23;;;14.95;;
64401;SDS011;50724;42.376;23.768;2023-07-08T01:46:32;22.98;;;14.32;;
64401;SDS011;50724;42.376;23.768;2023-07-08T01:49:33;21.25;;;14.40;;
64401;SDS011;50724;42.376;23.768;2023-07-08T01:52:36;23.58;;;15.82;;
64401;SDS011;50724;42.376;23.768;2023-07-08T01:55:37;20.77;;;13.18;;
64401;SDS011;50724;42.376;23.768;2023-07-08T01:58:37;26.33;;;15.38;;
64401;SDS011;50724;42.376;23.768;2023-07-08T02:01:37;21.10;;;14.00;;
64401;SDS011;50724;42.376;23.768;2023-07-08T02:04:38;20.63;;;13.13;;
64401;SDS011;50724;42.376;23.768;2023-07-08T02:07:38;23.98;;;15.13;;
64401;SDS011;50724;42.376;23.768;2023-07-08T02:10:39;24.77;;;15.68;;
64401;SDS011;50724;42.376;23.768;2023-07-08T02:13:41;23.85;;;14.68;;
64401;SDS011;50724;42.376;23.768;2023-07-08T02:16:41;23.58;;;14.90;;
64401;SDS011;50724;42.376;23.768;2023-07-08T02:19:43;23.50;;;15.20;;
64401;SDS011;50724;42.376;23.768;2023-07-08T02:22:43;26.33;;;15.13;;
64401;SDS011;50724;42.376;23.768;2023-07-08T02:25:51;25.92;;;16.08;;
64401;SDS011;50724;42.376;23.768;2023-07-08T02:28:52;24.48;;;14.95;;
64401;SDS011;50724;42.376;23.768;2023-07-08T02:31:52;26.50;;;15.10;;
64401;SDS011;50724;42.376;23.768;2023-07-08T02:34:53;27.70;;;16.77;;
64401;SDS011;50724;42.376;23.768;2023-07-08T02:37:53;26.00;;;15.53;;
64401;SDS011;50724;42.376;23.768;2023-07-08T02:40:55;28.92;;;15.80;;
64401;SDS011;50724;42.376;23.768;2023-07-08T02:43:56;23.08;;;14.13;;
64401;SDS011;50724;42.376;23.768;2023-07-08T02:46:56;28.00;;;16.67;;
64401;SDS011;50724;42.376;23.768;2023-07-08T02:49:57;22.95;;;14.48;;
64401;SDS011;50724;42.376;23.768;2023-07-08T02:52:57;24.10;;;15.47;;
64401;SDS011;50724;42.376;23.768;2023-07-08T02:55:57;25.73;;;15.67;;
64401;SDS011;50724;42.376;23.768;2023-07-08T02:58:58;26.08;;;16.20;;
64401;SDS011;50724;42.376;23.768;2023-07-08T03:01:58;25.20;;;13.97;;
64401;SDS011;50724;42.376;23.768;2023-07-08T03:04:59;27.15;;;16.50;;
64401;SDS011;50724;42.376;23.768;2023-07-08T03:08:09;24.42;;;14.77;;
64401;SDS011;50724;42.376;23.768;2023-07-08T03:11:10;23.30;;;15.85;;
64401;SDS011;50724;42.376;23.768;2023-07-08T03:14:11;28.25;;;16.90;;
64401;SDS011;50724;42.376;23.768;2023-07-08T03:17:12;23.65;;;15.68;;
64401;SDS011;50724;42.376;23.768;2023-07-08T03:20:12;22.07;;;13.77;;
64401;SDS011;50724;42.376;23.768;2023-07-08T03:23:14;26.20;;;15.50;;
64401;SDS011;50724;42.376;23.768;2023-07-08T03:26:15;22.10;;;14.63;;
64401;SDS011;50724;42.376;23.768;2023-07-08T03:29:18;25.15;;;15.35;;
64401;SDS011;50724;42.376;23.768;2023-07-08T03:32:19;22.00;;;15.52;;
64401;SDS011;50724;42.376;23.768;2023-07-08T03:35:19;23.17;;;14.07;;
64401;SDS011;50724;42.376;23.768;2023-07-08T03:38:20;23.15;;;15.15;;
64401;SDS011;50724;42.376;23.768;2023-07-08T03:41:21;22.53;;;15.20;;
64401;SDS011;50724;42.376;23.768;2023-07-08T03:44:22;19.52;;;13.50;;
64401;SDS011;50724;42.376;23.768;2023-07-08T03:47:22;27.27;;;15.48;;
64401;SDS011;50724;42.376;23.768;2023-07-08T03:50:31;22.63;;;14.65;;
64401;SDS011;50724;42.376;23.768;2023-07-08T03:53:32;23.73;;;15.32;;
64401;SDS011;50724;42.376;23.768;2023-07-08T03:56:32;25.77;;;15.20;;
64401;SDS011;50724;42.376;23.768;2023-07-08T03:59:33;22.17;;;15.82;;
64401;SDS011;50724;42.376;23.768;2023-07-08T04:02:33;20.33;;;14.50;;
64401;SDS011;50724;42.376;23.768;2023-07-08T04:05:34;21.90;;;14.95;;
64401;SDS011;50724;42.376;23.768;2023-07-08T04:08:34;24.50;;;15.48;;
64401;SDS011;50724;42.376;23.768;2023-07-08T04:11:34;22.85;;;15.73;;
64401;SDS011;50724;42.376;23.768;2023-07-08T04:14:35;23.13;;;14.87;;
64401;SDS011;50724;42.376;23.768;2023-07-08T04:17:41;21.23;;;14.93;;
64401;SDS011;50724;42.376;23.768;2023-07-08T04:20:45;20.55;;;14.20;;
64401;SDS011;50724;42.376;23.768;2023-07-08T04:23:52;24.98;;;15.73;;
64401;SDS011;50724;42.376;23.768;2023-07-08T04:26:52;20.00;;;13.73;;
64401;SDS011;50724;42.376;23.768;2023-07-08T04:29:53;19.15;;;13.50;;
64401;SDS011;50724;42.376;23.768;2023-07-08T04:32:54;20.95;;;14.30;;
64401;SDS011;50724;42.376;23.768;2023-07-08T04:35:56;19.33;;;11.15;;
64401;SDS011;50724;42.376;23.768;2023-07-08T04:38:56;15.43;;;10.88;;
64401;SDS011;50724;42.376;23.768;2023-07-08T04:41:58;15.85;;;11.15;;
64401;SDS011;50724;42.376;23.768;2023-07-08T04:44:58;16.37;;;10.10;;
64401;SDS011;50724;42.376;23.768;2023-07-08T04:47:58;14.40;;;10.57;;
64401;SDS011;50724;42.376;23.768;2023-07-08T04:50:59;13.70;;;10.13;;
64401;SDS011;50724;42.376;23.768;2023-07-08T04:53:59;15.80;;;10.43;;
64401;SDS011;50724;42.376;23.768;2023-07-08T04:57:00;14.32;;;10.30;;
64401;SDS011;50724;42.376;23.768;2023-07-08T05:00:00;13.43;;;9.43;;
64401;SDS011;50724;42.376;23.768;2023-07-08T05:03:01;13.10;;;9.90;;
64401;SDS011;50724;42.376;23.768;2023-07-08T05:06:01;18.10;;;10.02;;
64401;SDS011;50724;42.376;23.768;2023-07-08T05:09:02;14.77;;;9.50;;
64401;SDS011;50724;42.376;23.768;2023-07-08T05:12:03;14.68;;;9.40;;
64401;SDS011;50724;42.376;23.768;2023-07-08T05:15:04;13.05;;;10.02;;
64401;SDS011;50724;42.376;23.768;2023-07-08T05:18:04;12.73;;;9.45;;
64401;SDS011;50724;42.376;23.768;2023-07-08T05:21:05;12.95;;;9.50;;
64401;SDS011;50724;42.376;23.768;2023-07-08T05:24:06;13.15;;;8.93;;
64401;SDS011;50724;42.376;23.768;2023-07-08T05:27:07;12.57;;;8.82;;
64401;SDS011;50724;42.376;23.768;2023-07-08T05:30:08;11.43;;;8.65;;
64401;SDS011;50724;42.376;23.768;2023-07-08T05:33:14;12.20;;;8.45;;
64401;SDS011;50724;42.376;23.768;2023-07-08T05:36:14;12.57;;;9.07;;
64401;SDS011;50724;42.376;23.768;2023-07-08T05:39:15;11.88;;;9.25;;
64401;SDS011;50724;42.376;23.768;2023-07-08T05:42:15;12.60;;;9.13;;
64401;SDS011;50724;42.376;23.768;2023-07-08T05:45:16;12.27;;;8.90;;
64401;SDS011;50724;42.376;23.768;2023-07-08T05:48:16;15.27;;;8.98;;
64401;SDS011;50724;42.376;23.768;2023-07-08T05:51:16;12.10;;;8.67;;
64401;SDS011;50724;42.376;23.768;2023-07-08T05:54:17;11.63;;;8.07;;
64401;SDS011;50724;42.376;23.768;2023-07-08T05:57:17;11.40;;;8.32;;
64401;SDS011;50724;42.376;23.768;2023-07-08T06:00:18;11.83;;;7.80;;
64401;SDS011;50724;42.376;23.768;2023-07-08T06:03:18;14.38;;;8.15;;
64401;SDS011;50724;42.376;23.768;2023-07-08T06:06:19;11.47;;;7.40;;
64401;SDS011;50724;42.376;23.768;2023-07-08T06:09:22;10.32;;;7.70;;
64401;SDS011;50724;42.376;23.768;2023-07-08T06:12:22;12.60;;;8.02;;
64401;SDS011;50724;42.376;23.768;2023-07-08T06:15:24;11.02;;;7.97;;
64401;SDS011;50724;42.376;23.768;2023-07-08T06:18:24;10.55;;;7.97;;
64401;SDS011;50724;42.376;23.768;2023-07-08T06:21:25;9.07;;;6.57;;
64401;SDS011;50724;42.376;23.768;2023-07-08T06:24:25;12.33;;;7.93;;
64401;SDS011;50724;42.376;23.768;2023-07-08T06:27:25;9.15;;;6.57;;
64401;SDS011;50724;42.376;23.768;2023-07-08T06:30:26;9.60;;;7.20;;
64401;SDS011;50724;42.376;23.768;2023-07-08T06:33:27;11.18;;;7.28;;
64401;SDS011;50724;42.376;23.768;2023-07-08T06:36:27;12.27;;;7.80;;
64401;SDS011;50724;42.376;23.768;2023-07-08T06:39:28;13.63;;;7.10;;
64401;SDS011;50724;42.376;23.768;2023-07-08T06:42:28;11.50;;;6.90;;
64401;SDS011;50724;42.376;23.768;2023-07-08T06:45:29;9.48;;;7.30;;
64401;SDS011;50724;42.376;23.768;2023-07-08T06:48:30;9.13;;;5.73;;
64401;SDS011;50724;42.376;23.768;2023-07-08T06:51:30;10.82;;;7.03;;
64401;SDS011;50724;42.376;23.768;2023-07-08T06:54:31;10.07;;;8.13;;
64401;SDS011;50724;42.376;23.768;2023-07-08T06:57:31;8.73;;;6.33;;
64401;SDS011;50724;42.376;23.768;2023-07-08T07:00:32;9.75;;;7.45;;
64401;SDS011;50724;42.376;23.768;2023-07-08T07:03:33;10.80;;;7.20;;
64401;SDS011;50724;42.376;23.768;2023-07-08T07:06:33;9.93;;;7.22;;
64401;SDS011;50724;42.376;23.768;2023-07-08T07:09:34;9.82;;;6.53;;
64401;SDS011;50724;42.376;23.768;2023-07-08T07:12:34;11.73;;;7.77;;
64401;SDS011;50724;42.376;23.768;2023-07-08T07:15:35;12.45;;;7.65;;
64401;SDS011;50724;42.376;23.768;2023-07-08T07:18:35;9.60;;;7.03;;
64401;SDS011;50724;42.376;23.768;2023-07-08T07:21:36;11.88;;;8.02;;
64401;SDS011;50724;42.376;23.768;2023-07-08T07:24:37;8.48;;;6.03;;
64401;SDS011;50724;42.376;23.768;2023-07-08T07:27:37;10.52;;;5.78;;
64401;SDS011;50724;42.376;23.768;2023-07-08T07:30:37;9.25;;;6.20;;
64401;SDS011;50724;42.376;23.768;2023-07-08T07:33:38;10.97;;;7.30;;
64401;SDS011;50724;42.376;23.768;2023-07-08T07:36:38;12.67;;;7.90;;
64401;SDS011;50724;42.376;23.768;2023-07-08T07:39:39;14.03;;;8.40;;
64401;SDS011;50724;42.376;23.768;2023-07-08T07:42:44;10.93;;;7.47;;
64401;SDS011;50724;42.376;23.768;2023-07-08T07:45:49;10.93;;;7.68;;
64401;SDS011;50724;42.376;23.768;2023-07-08T07:48:50;13.50;;;8.23;;
64401;SDS011;50724;42.376;23.768;2023-07-08T07:51:51;10.37;;;7.63;;
64401;SDS011;50724;42.376;23.768;2023-07-08T07:54:51;8.97;;;6.10;;
64401;SDS011;50724;42.376;23.768;2023-07-08T07:57:53;9.95;;;6.22;;
64401;SDS011;50724;42.376;23.768;2023-07-08T08:00:54;11.32;;;7.10;;
64401;SDS011;50724;42.376;23.768;2023-07-08T08:03:54;9.03;;;6.43;;
64401;SDS011;50724;42.376;23.768;2023-07-08T08:06:55;9.53;;;7.27;;
64401;SDS011;50724;42.376;23.768;2023-07-08T08:09:55;9.33;;;6.60;;
64401;SDS011;50724;42.376;23.768;2023-07-08T08:12:56;13.00;;;6.57;;
64401;SDS011;50724;42.376;23.768;2023-07-08T08:15:56;10.00;;;7.07;;
64401;SDS011;50724;42.376;23.768;2023-07-08T08:18:57;10.18;;;6.07;;
64401;SDS011;50724;42.376;23.768;2023-07-08T08:21:58;12.07;;;6.97;;
64401;SDS011;50724;42.376;23.768;2023-07-08T08:24:59;10.48;;;6.63;;
64401;SDS011;50724;42.376;23.768;2023-07-08T08:27:59;10.65;;;6.43;;
64401;SDS011;50724;42.376;23.768;2023-07-08T08:30:59;9.55;;;6.28;;
64401;SDS011;50724;42.376;23.768;2023-07-08T08:34:00;9.30;;;6.15;;
64401;SDS011;50724;42.376;23.768;2023-07-08T08:37:00;8.87;;;6.40;;
64401;SDS011;50724;42.376;23.768;2023-07-08T08:40:01;10.23;;;6.47;;
64401;SDS011;50724;42.376;23.768;2023-07-08T08:43:03;9.65;;;6.13;;
64401;SDS011;50724;42.376;23.768;2023-07-08T08:49:39;9.50;;;5.22;;
64401;SDS011;50724;42.376;23.768;2023-07-08T08:52:44;11.35;;;6.38;;
64401;SDS011;50724;42.376;23.768;2023-07-08T08:56:03;9.15;;;6.68;;
64401;SDS011;50724;42.376;23.768;2023-07-08T08:59:36;11.77;;;7.68;;
64401;SDS011;50724;42.376;23.768;2023-07-08T09:03:00;11.90;;;6.47;;
64401;SDS011;50724;42.376;23.768;2023-07-08T09:06:12;11.32;;;7.22;;
64401;SDS011;50724;42.376;23.768;2023-07-08T09:09:24;9.98;;;7.15;;
64401;SDS011;50724;42.376;23.768;2023-07-08T09:12:35;12.30;;;6.93;;
64401;SDS011;50724;42.376;23.768;2023-07-08T09:15:46;10.63;;;6.90;;
64401;SDS011;50724;42.376;23.768;2023-07-08T09:25:24;11.70;;;7.00;;
64401;SDS011;50724;42.376;23.768;2023-07-08T09:28:37;9.00;;;6.70;;
64401;SDS011;50724;42.376;23.768;2023-07-08T09:31:39;10.48;;;6.55;;
64401;SDS011;50724;42.376;23.768;2023-07-08T09:37:53;8.65;;;5.60;;
64401;SDS011;50724;42.376;23.768;2023-07-08T09:40:54;8.77;;;5.63;;
64401;SDS011;50724;42.376;23.768;2023-07-08T09:44:06;8.30;;;5.25;;
64401;SDS011;50724;42.376;23.768;2023-07-08T09:47:21;9.85;;;5.32;;
64401;SDS011;50724;42.376;23.768;2023-07-08T09:50:24;7.68;;;4.90;;
64401;SDS011;50724;42.376;23.768;2023-07-08T09:53:27;8.80;;;4.53;;
64401;SDS011;50724;42.376;23.768;2023-07-08T09:56:28;7.55;;;4.80;;
64401;SDS011;50724;42.376;23.768;2023-07-08T09:59:29;7.27;;;4.80;;
64401;SDS011;50724;42.376;23.768;2023-07-08T10:06:05;6.90;;;4.32;;
64401;SDS011;50724;42.376;23.768;2023-07-08T10:09:14;8.20;;;3.75;;
64401;SDS011;50724;42.376;23.768;2023-07-08T10:12:20;5.45;;;3.60;;
64401;SDS011;50724;42.376;23.768;2023-07-08T10:15:42;6.40;;;3.65;;
64401;SDS011;50724;42.376;23.768;2023-07-08T10:18:46;6.13;;;3.50;;
64401;SDS011;50724;42.376;23.768;2023-07-08T10:31:40;6.13;;;3.25;;
64401;SDS011;50724;42.376;23.768;2023-07-08T10:45:10;9.50;;;3.75;;
64401;SDS011;50724;42.376;23.768;2023-07-08T10:48:24;5.75;;;3.67;;
64401;SDS011;50724;42.376;23.768;2023-07-08T11:07:56;7.43;;;4.05;;
64401;SDS011;50724;42.376;23.768;2023-07-08T11:14:22;5.45;;;3.35;;
64401;SDS011;50724;42.376;23.768;2023-07-08T11:17:49;5.90;;;3.28;;
64401;SDS011;50724;42.376;23.768;2023-07-08T11:21:06;6.07;;;3.20;;
64401;SDS011;50724;42.376;23.768;2023-07-08T11:24:22;6.53;;;3.63;;
64401;SDS011;50724;42.376;23.768;2023-07-08T11:27:31;5.60;;;3.20;;
64401;SDS011;50724;42.376;23.768;2023-07-08T11:30:36;5.38;;;3.10;;
64401;SDS011;50724;42.376;23.768;2023-07-08T11:33:42;9.90;;;3.45;;
64401;SDS011;50724;42.376;23.768;2023-07-08T11:39:45;5.45;;;2.97;;
64401;SDS011;50724;42.376;23.768;2023-07-08T11:42:53;7.00;;;3.65;;
64401;SDS011;50724;42.376;23.768;2023-07-08T11:46:03;7.00;;;3.80;;
64401;SDS011;50724;42.376;23.768;2023-07-08T11:49:12;5.22;;;3.17;;
64401;SDS011;50724;42.376;23.768;2023-07-08T11:52:16;6.70;;;3.28;;
64401;SDS011;50724;42.376;23.768;2023-07-08T11:55:23;4.82;;;3.03;;
64401;SDS011;50724;42.376;23.768;2023-07-08T11:58:29;7.47;;;3.92;;
64401;SDS011;50724;42.376;23.768;2023-07-08T12:01:32;6.72;;;3.40;;
64401;SDS011;50724;42.376;23.768;2023-07-08T12:04:59;5.13;;;2.88;;
64401;SDS011;50724;42.376;23.768;2023-07-08T12:08:17;5.95;;;3.47;;
64401;SDS011;50724;42.376;23.768;2023-07-08T12:11:18;8.18;;;3.58;;
64401;SDS011;50724;42.376;23.768;2023-07-08T12:14:31;5.38;;;3.30;;
64401;SDS011;50724;42.376;23.768;2023-07-08T12:17:32;5.53;;;3.50;;
64401;SDS011;50724;42.376;23.768;2023-07-08T12:20:36;6.33;;;3.03;;
64401;SDS011;50724;42.376;23.768;2023-07-08T12:23:43;4.85;;;3.08;;
64401;SDS011;50724;42.376;23.768;2023-07-08T12:26:44;6.88;;;3.97;;
64401;SDS011;50724;42.376;23.768;2023-07-08T12:29:45;8.73;;;3.97;;
64401;SDS011;50724;42.376;23.768;2023-07-08T12:32:45;6.57;;;3.88;;
64401;SDS011;50724;42.376;23.768;2023-07-08T12:35:46;6.53;;;3.75;;
64401;SDS011;50724;42.376;23.768;2023-07-08T12:38:48;6.50;;;3.83;;
64401;SDS011;50724;42.376;23.768;2023-07-08T12:41:50;6.32;;;3.78;;
64401;SDS011;50724;42.376;23.768;2023-07-08T12:44:51;6.57;;;3.83;;
64401;SDS011;50724;42.376;23.768;2023-07-08T12:47:51;7.47;;;4.47;;
64401;SDS011;50724;42.376;23.768;2023-07-08T12:50:52;6.75;;;4.22;;
64401;SDS011;50724;42.376;23.768;2023-07-08T12:53:53;8.18;;;4.03;;
64401;SDS011;50724;42.376;23.768;2023-07-08T12:56:54;8.27;;;4.18;;
64401;SDS011;50724;42.376;23.768;2023-07-08T12:59:54;6.30;;;4.10;;
64401;SDS011;50724;42.376;23.768;2023-07-08T13:02:56;8.80;;;4.30;;
64401;SDS011;50724;42.376;23.768;2023-07-08T13:06:12;7.68;;;4.40;;
64401;SDS011;50724;42.376;23.768;2023-07-08T13:12:38;7.00;;;4.55;;
64401;SDS011;50724;42.376;23.768;2023-07-08T13:15:40;9.52;;;3.90;;
64401;SDS011;50724;42.376;23.768;2023-07-08T13:18:42;7.07;;;4.35;;
64401;SDS011;50724;42.376;23.768;2023-07-08T13:21:43;7.07;;;4.18;;
64401;SDS011;50724;42.376;23.768;2023-07-08T13:24:45;7.47;;;4.15;;
64401;SDS011;50724;42.376;23.768;2023-07-08T13:28:02;7.88;;;3.88;;
64401;SDS011;50724;42.376;23.768;2023-07-08T13:31:20;6.40;;;3.80;;
64401;SDS011;50724;42.376;23.768;2023-07-08T13:34:23;6.38;;;3.92;;
64401;SDS011;50724;42.376;23.768;2023-07-08T13:37:24;6.65;;;4.07;;
64401;SDS011;50724;42.376;23.768;2023-07-08T13:40:30;6.72;;;4.05;;
64401;SDS011;50724;42.376;23.768;2023-07-08T13:43:32;8.05;;;3.85;;
64401;SDS011;50724;42.376;23.768;2023-07-08T13:46:39;7.78;;;3.90;;
64401;SDS011;50724;42.376;23.768;2023-07-08T13:49:42;6.55;;;4.00;;
64401;SDS011;50724;42.376;23.768;2023-07-08T13:52:44;6.15;;;3.67;;
64401;SDS011;50724;42.376;23.768;2023-07-08T13:55:45;5.47;;;3.50;;
64401;SDS011;50724;42.376;23.768;2023-07-08T13:58:47;5.80;;;3.45;;
64401;SDS011;50724;42.376;23.768;2023-07-08T14:01:50;6.75;;;3.97;;
64401;SDS011;50724;42.376;23.768;2023-07-08T14:04:53;6.10;;;3.47;;
64401;SDS011;50724;42.376;23.768;2023-07-08T14:07:56;4.70;;;2.70;;
64401;SDS011;50724;42.376;23.768;2023-07-08T14:10:57;6.37;;;3.53;;
64401;SDS011;50724;42.376;23.768;2023-07-08T14:13:57;7.47;;;3.75;;
64401;SDS011;50724;42.376;23.768;2023-07-08T14:16:58;5.73;;;3.20;;
64401;SDS011;50724;42.376;23.768;2023-07-08T14:19:58;5.50;;;3.22;;
64401;SDS011;50724;42.376;23.768;2023-07-08T14:22:58;6.25;;;3.38;;
64401;SDS011;50724;42.376;23.768;2023-07-08T14:25:59;8.98;;;3.72;;
64401;SDS011;50724;42.376;23.768;2023-07-08T14:28:59;7.97;;;3.50;;
64401;SDS011;50724;42.376;23.768;2023-07-08T14:32:00;5.53;;;3.43;;
64401;SDS011;50724;42.376;23.768;2023-07-08T14:38:23;5.72;;;3.60;;
64401;SDS011;50724;42.376;23.768;2023-07-08T14:41:24;7.25;;;3.25;;
64401;SDS011;50724;42.376;23.768;2023-07-08T14:44:33;6.38;;;3.30;;
64401;SDS011;50724;42.376;23.768;2023-07-08T14:47:35;5.57;;;3.35;;
64401;SDS011;50724;42.376;23.768;2023-07-08T14:50:36;5.68;;;3.05;;
64401;SDS011;50724;42.376;23.768;2023-07-08T14:53:36;7.03;;;3.33;;
64401;SDS011;50724;42.376;23.768;2023-07-08T14:56:37;6.00;;;3.20;;
64401;SDS011;50724;42.376;23.768;2023-07-08T15:02:48;8.27;;;3.30;;
64401;SDS011;50724;42.376;23.768;2023-07-08T15:05:50;6.85;;;2.85;;
64401;SDS011;50724;42.376;23.768;2023-07-08T15:08:50;6.03;;;3.20;;
64401;SDS011;50724;42.376;23.768;2023-07-08T15:11:51;7.00;;;3.55;;
64401;SDS011;50724;42.376;23.768;2023-07-08T15:14:52;6.38;;;3.53;;
64401;SDS011;50724;42.376;23.768;2023-07-08T15:17:52;6.80;;;2.90;;
64401;SDS011;50724;42.376;23.768;2023-07-08T15:20:55;6.05;;;3.22;;
64401;SDS011;50724;42.376;23.768;2023-07-08T15:23:56;4.53;;;2.80;;
64401;SDS011;50724;42.376;23.768;2023-07-08T15:26:56;6.23;;;3.17;;
64401;SDS011;50724;42.376;23.768;2023-07-08T15:29:57;10.23;;;3.50;;
64401;SDS011;50724;42.376;23.768;2023-07-08T15:33:08;5.10;;;3.10;;
64401;SDS011;50724;42.376;23.768;2023-07-08T15:36:10;5.65;;;2.92;;
64401;SDS011;50724;42.376;23.768;2023-07-08T15:39:12;4.85;;;2.65;;
64401;SDS011;50724;42.376;23.768;2023-07-08T15:42:15;5.13;;;2.90;;
64401;SDS011;50724;42.376;23.768;2023-07-08T15:48:23;4.25;;;2.20;;
64401;SDS011;50724;42.376;23.768;2023-07-08T15:51:33;4.68;;;2.70;;
64401;SDS011;50724;42.376;23.768;2023-07-08T15:54:33;3.70;;;2.17;;
64401;SDS011;50724;42.376;23.768;2023-07-08T15:57:34;4.03;;;2.30;;
64401;SDS011;50724;42.376;23.768;2023-07-08T16:00:43;5.65;;;3.08;;
64401;SDS011;50724;42.376;23.768;2023-07-08T16:03:43;5.00;;;2.78;;
64401;SDS011;50724;42.376;23.768;2023-07-08T16:06:44;4.18;;;2.53;;
64401;SDS011;50724;42.376;23.768;2023-07-08T16:09:44;4.93;;;2.10;;
64401;SDS011;50724;42.376;23.768;2023-07-08T16:12:45;4.90;;;2.47;;
64401;SDS011;50724;42.376;23.768;2023-07-08T16:15:47;4.85;;;2.65;;
64401;SDS011;50724;42.376;23.768;2023-07-08T16:18:47;4.63;;;2.38;;
64401;SDS011;50724;42.376;23.768;2023-07-08T16:21:48;5.10;;;2.45;;
64401;SDS011;50724;42.376;23.768;2023-07-08T16:24:48;4.50;;;2.17;;
64401;SDS011;50724;42.376;23.768;2023-07-08T16:27:49;6.82;;;2.55;;
64401;SDS011;50724;42.376;23.768;2023-07-08T16:30:50;5.97;;;2.83;;
64401;SDS011;50724;42.376;23.768;2023-07-08T16:33:51;5.75;;;2.50;;
64401;SDS011;50724;42.376;23.768;2023-07-08T16:36:51;4.75;;;2.60;;
64401;SDS011;50724;42.376;23.768;2023-07-08T16:39:51;7.03;;;2.50;;
64401;SDS011;50724;42.376;23.768;2023-07-08T16:42:54;6.60;;;2.40;;
64401;SDS011;50724;42.376;23.768;2023-07-08T16:45:55;4.85;;;2.08;;
64401;SDS011;50724;42.376;23.768;2023-07-08T16:48:56;5.75;;;2.60;;
64401;SDS011;50724;42.376;23.768;2023-07-08T16:51:57;4.67;;;2.40;;
64401;SDS011;50724;42.376;23.768;2023-07-08T16:54:57;5.93;;;2.70;;
64401;SDS011;50724;42.376;23.768;2023-07-08T16:57:58;5.32;;;2.97;;
64401;SDS011;50724;42.376;23.768;2023-07-08T17:00:59;6.90;;;3.00;;
64401;SDS011;50724;42.376;23.768;2023-07-08T17:03:59;4.80;;;2.83;;
64401;SDS011;50724;42.376;23.768;2023-07-08T17:07:00;4.97;;;2.90;;
64401;SDS011;50724;42.376;23.768;2023-07-08T17:10:00;6.40;;;3.47;;
64401;SDS011;50724;42.376;23.768;2023-07-08T17:13:01;5.47;;;2.70;;
64401;SDS011;50724;42.376;23.768;2023-07-08T17:16:01;7.10;;;3.07;;
64401;SDS011;50724;42.376;23.768;2023-07-08T17:19:03;6.68;;;2.58;;
64401;SDS011;50724;42.376;23.768;2023-07-08T17:22:03;6.93;;;2.88;;
64401;SDS011;50724;42.376;23.768;2023-07-08T17:25:05;6.28;;;3.28;;
64401;SDS011;50724;42.376;23.768;2023-07-08T17:28:05;7.15;;;2.88;;
64401;SDS011;50724;42.376;23.768;2023-07-08T17:31:06;4.53;;;2.80;;
64401;SDS011;50724;42.376;23.768;2023-07-08T17:34:16;5.00;;;3.10;;
64401;SDS011;50724;42.376;23.768;2023-07-08T17:37:21;6.07;;;3.30;;
64401;SDS011;50724;42.376;23.768;2023-07-08T17:40:27;5.13;;;2.83;;
64401;SDS011;50724;42.376;23.768;2023-07-08T17:43:28;5.15;;;2.90;;
64401;SDS011;50724;42.376;23.768;2023-07-08T17:46:28;6.00;;;3.10;;
64401;SDS011;50724;42.376;23.768;2023-07-08T17:49:29;5.15;;;2.92;;
64401;SDS011;50724;42.376;23.768;2023-07-08T17:52:29;5.60;;;3.25;;
64401;SDS011;50724;42.376;23.768;2023-07-08T17:55:30;5.47;;;3.27;;
64401;SDS011;50724;42.376;23.768;2023-07-08T17:58:31;7.45;;;3.78;;
64401;SDS011;50724;42.376;23.768;2023-07-08T18:01:33;6.72;;;3.83;;
64401;SDS011;50724;42.376;23.768;2023-07-08T18:04:34;6.83;;;3.00;;
64401;SDS011;50724;42.376;23.768;2023-07-08T18:07:34;6.50;;;3.20;;
64401;SDS011;50724;42.376;23.768;2023-07-08T18:10:34;5.90;;;3.43;;
64401;SDS011;50724;42.376;23.768;2023-07-08T18:13:35;5.25;;;3.30;;
64401;SDS011;50724;42.376;23.768;2023-07-08T18:16:37;6.03;;;3.50;;
64401;SDS011;50724;42.376;23.768;2023-07-08T18:19:38;6.43;;;3.30;;
64401;SDS011;50724;42.376;23.768;2023-07-08T18:22:39;5.17;;;3.67;;
64401;SDS011;50724;42.376;23.768;2023-07-08T18:25:45;7.85;;;3.72;;
64401;SDS011;50724;42.376;23.768;2023-07-08T18:28:46;6.55;;;3.55;;
64401;SDS011;50724;42.376;23.768;2023-07-08T18:31:47;8.23;;;3.50;;
64401;SDS011;50724;42.376;23.768;2023-07-08T18:34:47;6.47;;;3.60;;
64401;SDS011;50724;42.376;23.768;2023-07-08T18:37:48;7.00;;;3.92;;
64401;SDS011;50724;42.376;23.768;2023-07-08T18:40:50;5.85;;;3.50;;
64401;SDS011;50724;42.376;23.768;2023-07-08T18:43:50;6.03;;;3.60;;
64401;SDS011;50724;42.376;23.768;2023-07-08T18:46:51;9.48;;;3.58;;
64401;SDS011;50724;42.376;23.768;2023-07-08T18:49:53;6.57;;;3.75;;
64401;SDS011;50724;42.376;23.768;2023-07-08T18:52:54;6.43;;;3.70;;
64401;SDS011;50724;42.376;23.768;2023-07-08T18:55:55;8.13;;;3.58;;
64401;SDS011;50724;42.376;23.768;2023-07-08T18:58:56;7.53;;;3.72;;
64401;SDS011;50724;42.376;23.768;2023-07-08T19:01:56;7.97;;;4.43;;
64401;SDS011;50724;42.376;23.768;2023-07-08T19:04:57;8.10;;;3.50;;
64401;SDS011;50724;42.376;23.768;2023-07-08T19:07:57;8.13;;;3.78;;